sensor_id;sensor_type;location;lat;lon;timestamp;P1;durP1;ratioP1;P2;durP2;ratioP2
36321;SDS011;23564;48.290;11.460;2022-11-21T00:00:39;0.68;;;0.50;;
36321;SDS011;23564;48.290;11.460;2022-11-21T00:03:05;0.50;;;0.50;;
36321;SDS011;23564;48.290;11.460;2022-11-21T00:05:31;1.70;;;0.70;;
36321;SDS011;23564;48.290;11.460;2022-11-21T00:07:57;1.02;;;0.65;;
36321;SDS011;23564;48.290;11.460;2022-11-21T00:10:23;0.60;;;0.60;;
36321;SDS011;23564;48.290;11.460;2022-11-21T00:12:53;2.15;;;0.50;;
36321;SDS011;23564;48.290;11.460;2022-11-21T00:15:20;2.58;;;0.70;;
36321;SDS011;23564;48.290;11.460;2022-11-21T00:17:46;1.15;;;0.57;;
36321;SDS011;23564;48.290;11.460;2022-11-21T00:20:11;0.77;;;0.73;;
36321;SDS011;23564;48.290;11.460;2022-11-21T00:22:37;0.70;;;0.70;;
36321;SDS011;23564;48.290;11.460;2022-11-21T00:25:02;1.20;;;0.70;;
36321;SDS011;23564;48.290;11.460;2022-11-21T00:27:28;0.68;;;0.60;;
36321;SDS011;23564;48.290;11.460;2022-11-21T00:29:54;1.17;;;0.80;;
36321;SDS011;23564;48.290;11.460;2022-11-21T00:32:20;1.17;;;0.80;;
36321;SDS011;23564;48.290;11.460;2022-11-21T00:34:45;2.92;;;1.60;;
36321;SDS011;23564;48.290;11.460;2022-11-21T00:37:11;1.15;;;0.68;;
36321;SDS011;23564;48.290;11.460;2022-11-21T00:39:36;1.40;;;0.70;;
36321;SDS011;23564;48.290;11.460;2022-11-21T00:42:02;0.93;;;0.75;;
36321;SDS011;23564;48.290;11.460;2022-11-21T00:44:27;0.70;;;0.50;;
36321;SDS011;23564;48.290;11.460;2022-11-21T00:46:53;1.95;;;0.73;;
36321;SDS011;23564;48.290;11.460;2022-11-21T00:49:18;3.10;;;0.60;;
36321;SDS011;23564;48.290;11.460;2022-11-21T00:51:44;0.85;;;0.63;;
36321;SDS011;23564;48.290;11.460;2022-11-21T00:54:09;1.52;;;0.77;;
36321;SDS011;23564;48.290;11.460;2022-11-21T00:56:35;1.17;;;0.57;;
36321;SDS011;23564;48.290;11.460;2022-11-21T00:59:00;1.42;;;0.70;;
36321;SDS011;23564;48.290;11.460;2022-11-21T01:01:26;0.40;;;0.40;;
36321;SDS011;23564;48.290;11.460;2022-11-21T01:03:52;4.75;;;0.90;;
36321;SDS011;23564;48.290;11.460;2022-11-21T01:06:17;1.13;;;0.70;;
36321;SDS011;23564;48.290;11.460;2022-11-21T01:08:43;0.63;;;0.43;;
36321;SDS011;23564;48.290;11.460;2022-11-21T01:11:10;0.63;;;0.60;;
36321;SDS011;23564;48.290;11.460;2022-11-21T01:13:38;2.95;;;1.00;;
36321;SDS011;23564;48.290;11.460;2022-11-21T01:16:08;0.93;;;0.80;;
36321;SDS011;23564;48.290;11.460;2022-11-21T01:18:35;0.65;;;0.57;;
36321;SDS011;23564;48.290;11.460;2022-11-21T01:21:02;1.05;;;0.63;;
36321;SDS011;23564;48.290;11.460;2022-11-21T01:23:30;3.53;;;0.80;;
36321;SDS011;23564;48.290;11.460;2022-11-21T01:26:03;2.03;;;0.60;;
36321;SDS011;23564;48.290;11.460;2022-11-21T01:28:30;0.60;;;0.60;;
36321;SDS011;23564;48.290;11.460;2022-11-21T01:31:03;0.75;;;0.65;;
36321;SDS011;23564;48.290;11.460;2022-11-21T01:33:36;0.40;;;0.30;;
36321;SDS011;23564;48.290;11.460;2022-11-21T01:36:09;0.88;;;0.60;;
36321;SDS011;23564;48.290;11.460;2022-11-21T01:38:49;1.15;;;0.90;;
36321;SDS011;23564;48.290;11.460;2022-11-21T01:41:18;1.27;;;0.90;;
36321;SDS011;23564;48.290;11.460;2022-11-21T01:43:52;1.98;;;0.98;;
36321;SDS011;23564;48.290;11.460;2022-11-21T01:46:18;1.50;;;0.80;;
36321;SDS011;23564;48.290;11.460;2022-11-21T01:48:48;1.35;;;0.75;;
36321;SDS011;23564;48.290;11.460;2022-11-21T01:51:26;1.90;;;0.70;;
36321;SDS011;23564;48.290;11.460;2022-11-21T01:54:01;1.17;;;0.65;;
36321;SDS011;23564;48.290;11.460;2022-11-21T01:56:31;0.80;;;0.70;;
36321;SDS011;23564;48.290;11.460;2022-11-21T01:59:04;3.17;;;0.70;;
36321;SDS011;23564;48.290;11.460;2022-11-21T02:01:33;2.42;;;1.05;;
36321;SDS011;23564;48.290;11.460;2022-11-21T02:04:00;1.10;;;0.90;;
36321;SDS011;23564;48.290;11.460;2022-11-21T02:06:27;2.60;;;1.10;;
36321;SDS011;23564;48.290;11.460;2022-11-21T02:08:54;1.23;;;0.68;;
36321;SDS011;23564;48.290;11.460;2022-11-21T02:12:23;3.88;;;0.70;;
36321;SDS011;23564;48.290;11.460;2022-11-21T02:14:22;1.67;;;0.90;;
36321;SDS011;23564;48.290;11.460;2022-11-21T02:16:48;1.17;;;0.93;;
36321;SDS011;23564;48.290;11.460;2022-11-21T02:19:27;1.60;;;0.90;;
36321;SDS011;23564;48.290;11.460;2022-11-21T02:22:05;2.53;;;1.15;;
36321;SDS011;23564;48.290;11.460;2022-11-21T02:24:40;3.13;;;1.10;;
36321;SDS011;23564;48.290;11.460;2022-11-21T02:27:10;3.10;;;1.05;;
36321;SDS011;23564;48.290;11.460;2022-11-21T02:29:37;3.55;;;0.93;;
36321;SDS011;23564;48.290;11.460;2022-11-21T02:32:04;2.58;;;0.90;;
36321;SDS011;23564;48.290;11.460;2022-11-21T02:34:30;5.38;;;0.90;;
36321;SDS011;23564;48.290;11.460;2022-11-21T02:36:56;1.17;;;0.75;;
36321;SDS011;23564;48.290;11.460;2022-11-21T02:39:26;3.70;;;0.80;;
36321;SDS011;23564;48.290;11.460;2022-11-21T02:47:40;4.32;;;1.13;;
36321;SDS011;23564;48.290;11.460;2022-11-21T02:50:24;2.35;;;1.10;;
36321;SDS011;23564;48.290;11.460;2022-11-21T02:52:52;4.25;;;1.67;;
36321;SDS011;23564;48.290;11.460;2022-11-21T02:55:19;2.03;;;0.98;;
36321;SDS011;23564;48.290;11.460;2022-11-21T02:57:44;3.10;;;0.80;;
36321;SDS011;23564;48.290;11.460;2022-11-21T03:00:10;1.02;;;0.90;;
36321;SDS011;23564;48.290;11.460;2022-11-21T03:02:36;1.40;;;0.88;;
36321;SDS011;23564;48.290;11.460;2022-11-21T03:05:02;1.83;;;0.90;;
36321;SDS011;23564;48.290;11.460;2022-11-21T03:07:29;1.40;;;0.90;;
36321;SDS011;23564;48.290;11.460;2022-11-21T03:09:55;2.42;;;0.68;;
36321;SDS011;23564;48.290;11.460;2022-11-21T03:12:21;1.85;;;0.77;;
36321;SDS011;23564;48.290;11.460;2022-11-21T03:14:46;8.82;;;0.90;;
36321;SDS011;23564;48.290;11.460;2022-11-21T03:17:12;1.55;;;0.80;;
36321;SDS011;23564;48.290;11.460;2022-11-21T03:19:37;1.38;;;0.80;;
36321;SDS011;23564;48.290;11.460;2022-11-21T03:22:03;2.70;;;1.00;;
36321;SDS011;23564;48.290;11.460;2022-11-21T03:24:29;2.60;;;0.80;;
36321;SDS011;23564;48.290;11.460;2022-11-21T03:26:54;2.05;;;0.88;;
36321;SDS011;23564;48.290;11.460;2022-11-21T03:29:20;5.07;;;0.85;;
36321;SDS011;23564;48.290;11.460;2022-11-21T03:31:45;4.97;;;1.15;;
36321;SDS011;23564;48.290;11.460;2022-11-21T03:34:11;0.55;;;0.47;;
36321;SDS011;23564;48.290;11.460;2022-11-21T03:36:36;1.52;;;0.85;;
36321;SDS011;23564;48.290;11.460;2022-11-21T03:39:02;3.70;;;0.80;;
36321;SDS011;23564;48.290;11.460;2022-11-21T03:41:29;1.23;;;0.50;;
36321;SDS011;23564;48.290;11.460;2022-11-21T03:43:56;1.90;;;0.70;;
36321;SDS011;23564;48.290;11.460;2022-11-21T03:46:22;3.67;;;0.85;;
36321;SDS011;23564;48.290;11.460;2022-11-21T03:48:47;1.60;;;0.80;;
36321;SDS011;23564;48.290;11.460;2022-11-21T03:51:13;3.65;;;0.90;;
36321;SDS011;23564;48.290;11.460;2022-11-21T03:53:38;4.25;;;0.52;;
36321;SDS011;23564;48.290;11.460;2022-11-21T03:56:04;1.30;;;0.52;;
36321;SDS011;23564;48.290;11.460;2022-11-21T03:58:29;2.55;;;0.60;;
36321;SDS011;23564;48.290;11.460;2022-11-21T04:00:55;3.78;;;0.80;;
36321;SDS011;23564;48.290;11.460;2022-11-21T04:03:21;2.65;;;0.57;;
36321;SDS011;23564;48.290;11.460;2022-11-21T04:05:46;4.03;;;0.93;;
36321;SDS011;23564;48.290;11.460;2022-11-21T04:08:12;4.35;;;0.60;;
36321;SDS011;23564;48.290;11.460;2022-11-21T04:10:37;5.93;;;0.63;;
36321;SDS011;23564;48.290;11.460;2022-11-21T04:13:03;2.80;;;0.65;;
36321;SDS011;23564;48.290;11.460;2022-11-21T04:15:28;3.88;;;0.90;;
36321;SDS011;23564;48.290;11.460;2022-11-21T04:17:54;1.77;;;0.68;;
36321;SDS011;23564;48.290;11.460;2022-11-21T04:20:20;1.73;;;0.65;;
36321;SDS011;23564;48.290;11.460;2022-11-21T04:22:45;2.75;;;0.70;;
36321;SDS011;23564;48.290;11.460;2022-11-21T04:25:11;2.28;;;0.70;;
36321;SDS011;23564;48.290;11.460;2022-11-21T04:27:37;1.80;;;0.63;;
36321;SDS011;23564;48.290;11.460;2022-11-21T04:30:03;3.75;;;0.85;;
36321;SDS011;23564;48.290;11.460;2022-11-21T04:32:30;5.57;;;1.00;;
36321;SDS011;23564;48.290;11.460;2022-11-21T04:34:55;2.50;;;1.02;;
36321;SDS011;23564;48.290;11.460;2022-11-21T04:37:21;2.85;;;0.70;;
36321;SDS011;23564;48.290;11.460;2022-11-21T04:39:46;3.13;;;0.80;;
36321;SDS011;23564;48.290;11.460;2022-11-21T04:42:12;5.07;;;1.00;;
36321;SDS011;23564;48.290;11.460;2022-11-21T04:44:37;5.32;;;0.90;;
36321;SDS011;23564;48.290;11.460;2022-11-21T04:47:03;2.47;;;0.70;;
36321;SDS011;23564;48.290;11.460;2022-11-21T04:49:28;2.65;;;0.70;;
36321;SDS011;23564;48.290;11.460;2022-11-21T04:51:54;2.85;;;0.70;;
36321;SDS011;23564;48.290;11.460;2022-11-21T04:54:20;1.67;;;0.80;;
36321;SDS011;23564;48.290;11.460;2022-11-21T04:56:45;1.90;;;0.57;;
36321;SDS011;23564;48.290;11.460;2022-11-21T04:59:11;3.33;;;0.68;;
36321;SDS011;23564;48.290;11.460;2022-11-21T05:01:36;4.30;;;0.68;;
36321;SDS011;23564;48.290;11.460;2022-11-21T05:04:02;4.82;;;0.70;;
36321;SDS011;23564;48.290;11.460;2022-11-21T05:06:28;1.60;;;0.50;;
36321;SDS011;23564;48.290;11.460;2022-11-21T05:08:53;3.95;;;0.77;;
36321;SDS011;23564;48.290;11.460;2022-11-21T05:11:19;4.18;;;0.60;;
36321;SDS011;23564;48.290;11.460;2022-11-21T05:14:03;6.03;;;0.60;;
36321;SDS011;23564;48.290;11.460;2022-11-21T05:16:28;3.15;;;0.70;;
36321;SDS011;23564;48.290;11.460;2022-11-21T05:18:56;5.40;;;0.82;;
36321;SDS011;23564;48.290;11.460;2022-11-21T05:21:21;3.45;;;0.63;;
36321;SDS011;23564;48.290;11.460;2022-11-21T05:23:47;3.53;;;0.80;;
36321;SDS011;23564;48.290;11.460;2022-11-21T05:26:12;7.10;;;0.95;;
36321;SDS011;23564;48.290;11.460;2022-11-21T05:28:38;3.80;;;0.60;;
36321;SDS011;23564;48.290;11.460;2022-11-21T05:31:03;1.92;;;0.75;;
36321;SDS011;23564;48.290;11.460;2022-11-21T05:33:29;5.82;;;0.90;;
36321;SDS011;23564;48.290;11.460;2022-11-21T05:35:54;1.77;;;0.65;;
36321;SDS011;23564;48.290;11.460;2022-11-21T05:38:20;1.23;;;0.60;;
36321;SDS011;23564;48.290;11.460;2022-11-21T05:40:45;3.88;;;0.75;;
36321;SDS011;23564;48.290;11.460;2022-11-21T05:43:11;1.95;;;0.60;;
36321;SDS011;23564;48.290;11.460;2022-11-21T05:45:55;4.53;;;0.80;;
36321;SDS011;23564;48.290;11.460;2022-11-21T05:48:21;1.45;;;0.60;;
36321;SDS011;23564;48.290;11.460;2022-11-21T05:50:47;0.73;;;0.50;;
36321;SDS011;23564;48.290;11.460;2022-11-21T05:53:13;1.20;;;0.50;;
36321;SDS011;23564;48.290;11.460;2022-11-21T05:55:39;0.70;;;0.50;;
36321;SDS011;23564;48.290;11.460;2022-11-21T05:58:05;2.08;;;0.60;;
36321;SDS011;23564;48.290;11.460;2022-11-21T06:00:30;2.92;;;0.73;;
36321;SDS011;23564;48.290;11.460;2022-11-21T06:02:57;1.85;;;0.57;;
36321;SDS011;23564;48.290;11.460;2022-11-21T06:05:41;1.63;;;0.73;;
36321;SDS011;23564;48.290;11.460;2022-11-21T06:08:06;0.68;;;0.50;;
36321;SDS011;23564;48.290;11.460;2022-11-21T06:10:32;2.90;;;1.15;;
36321;SDS011;23564;48.290;11.460;2022-11-21T06:12:58;3.05;;;0.60;;
36321;SDS011;23564;48.290;11.460;2022-11-21T06:15:25;3.92;;;0.82;;
36321;SDS011;23564;48.290;11.460;2022-11-21T06:17:50;0.82;;;0.50;;
36321;SDS011;23564;48.290;11.460;2022-11-21T06:20:16;1.73;;;0.68;;
36321;SDS011;23564;48.290;11.460;2022-11-21T06:22:42;2.35;;;0.50;;
36321;SDS011;23564;48.290;11.460;2022-11-21T06:25:07;2.13;;;0.65;;
36321;SDS011;23564;48.290;11.460;2022-11-21T06:27:33;1.02;;;0.50;;
36321;SDS011;23564;48.290;11.460;2022-11-21T06:29:58;3.10;;;1.30;;
36321;SDS011;23564;48.290;11.460;2022-11-21T06:32:24;1.50;;;0.70;;
36321;SDS011;23564;48.290;11.460;2022-11-21T06:34:50;4.05;;;0.90;;
36321;SDS011;23564;48.290;11.460;2022-11-21T06:37:15;4.22;;;1.10;;
36321;SDS011;23564;48.290;11.460;2022-11-21T06:39:41;1.67;;;0.90;;
36321;SDS011;23564;48.290;11.460;2022-11-21T06:42:06;2.97;;;1.10;;
36321;SDS011;23564;48.290;11.460;2022-11-21T06:44:32;1.58;;;0.70;;
36321;SDS011;23564;48.290;11.460;2022-11-21T06:46:57;4.97;;;1.00;;
36321;SDS011;23564;48.290;11.460;2022-11-21T06:49:23;3.13;;;0.90;;
36321;SDS011;23564;48.290;11.460;2022-11-21T06:51:48;3.83;;;1.10;;
36321;SDS011;23564;48.290;11.460;2022-11-21T06:54:14;2.90;;;1.02;;
36321;SDS011;23564;48.290;11.460;2022-11-21T06:56:40;2.53;;;1.00;;
36321;SDS011;23564;48.290;11.460;2022-11-21T06:59:05;3.78;;;1.42;;
36321;SDS011;23564;48.290;11.460;2022-11-21T07:01:31;1.88;;;1.20;;
36321;SDS011;23564;48.290;11.460;2022-11-21T07:03:56;4.07;;;1.00;;
36321;SDS011;23564;48.290;11.460;2022-11-21T07:06:22;2.33;;;1.02;;
36321;SDS011;23564;48.290;11.460;2022-11-21T07:08:50;2.55;;;0.95;;
36321;SDS011;23564;48.290;11.460;2022-11-21T07:11:17;2.35;;;1.30;;
36321;SDS011;23564;48.290;11.460;2022-11-21T07:13:43;3.75;;;1.25;;
36321;SDS011;23564;48.290;11.460;2022-11-21T07:16:09;1.20;;;1.10;;
36321;SDS011;23564;48.290;11.460;2022-11-21T07:18:38;1.17;;;0.90;;
36321;SDS011;23564;48.290;11.460;2022-11-21T07:21:04;1.90;;;0.95;;
36321;SDS011;23564;48.290;11.460;2022-11-21T07:23:31;1.42;;;0.80;;
36321;SDS011;23564;48.290;11.460;2022-11-21T07:26:02;0.70;;;0.70;;
36321;SDS011;23564;48.290;11.460;2022-11-21T07:28:29;3.53;;;1.00;;
36321;SDS011;23564;48.290;11.460;2022-11-21T07:30:56;3.28;;;0.80;;
36321;SDS011;23564;48.290;11.460;2022-11-21T07:33:22;1.90;;;0.80;;
36321;SDS011;23564;48.290;11.460;2022-11-21T07:35:48;3.22;;;0.80;;
36321;SDS011;23564;48.290;11.460;2022-11-21T07:38:13;1.42;;;0.85;;
36321;SDS011;23564;48.290;11.460;2022-11-21T07:40:39;2.38;;;0.70;;
36321;SDS011;23564;48.290;11.460;2022-11-21T07:43:04;1.50;;;0.80;;
36321;SDS011;23564;48.290;11.460;2022-11-21T07:45:31;1.60;;;0.60;;
36321;SDS011;23564;48.290;11.460;2022-11-21T07:47:57;1.58;;;0.75;;
36321;SDS011;23564;48.290;11.460;2022-11-21T07:50:26;2.53;;;0.65;;
36321;SDS011;23564;48.290;11.460;2022-11-21T07:53:10;1.23;;;0.60;;
36321;SDS011;23564;48.290;11.460;2022-11-21T07:55:37;1.05;;;0.50;;
36321;SDS011;23564;48.290;11.460;2022-11-21T07:58:04;0.98;;;0.50;;
36321;SDS011;23564;48.290;11.460;2022-11-21T08:00:31;0.80;;;0.60;;
36321;SDS011;23564;48.290;11.460;2022-11-21T08:02:59;0.70;;;0.52;;
36321;SDS011;23564;48.290;11.460;2022-11-21T08:05:24;1.15;;;0.50;;
36321;SDS011;23564;48.290;11.460;2022-11-21T08:07:50;1.08;;;0.55;;
36321;SDS011;23564;48.290;11.460;2022-11-21T08:10:16;1.02;;;0.63;;
36321;SDS011;23564;48.290;11.460;2022-11-21T08:12:45;2.97;;;0.40;;
36321;SDS011;23564;48.290;11.460;2022-11-21T08:15:11;2.08;;;0.45;;
36321;SDS011;23564;48.290;11.460;2022-11-21T08:17:37;0.65;;;0.40;;
36321;SDS011;23564;48.290;11.460;2022-11-21T08:20:04;0.70;;;0.30;;
36321;SDS011;23564;48.290;11.460;2022-11-21T08:22:30;0.50;;;0.40;;
36321;SDS011;23564;48.290;11.460;2022-11-21T08:24:56;1.25;;;0.50;;
36321;SDS011;23564;48.290;11.460;2022-11-21T08:27:22;0.75;;;0.47;;
36321;SDS011;23564;48.290;11.460;2022-11-21T08:29:48;0.40;;;0.40;;
36321;SDS011;23564;48.290;11.460;2022-11-21T08:32:14;3.83;;;0.65;;
36321;SDS011;23564;48.290;11.460;2022-11-21T08:34:39;1.25;;;0.60;;
36321;SDS011;23564;48.290;11.460;2022-11-21T08:37:05;2.40;;;0.57;;
36321;SDS011;23564;48.290;11.460;2022-11-21T08:39:30;0.70;;;0.52;;
36321;SDS011;23564;48.290;11.460;2022-11-21T08:41:56;2.40;;;0.50;;
36321;SDS011;23564;48.290;11.460;2022-11-21T08:44:34;0.82;;;0.50;;
36321;SDS011;23564;48.290;11.460;2022-11-21T08:47:00;0.70;;;0.40;;
36321;SDS011;23564;48.290;11.460;2022-11-21T08:49:25;0.63;;;0.40;;
36321;SDS011;23564;48.290;11.460;2022-11-21T08:51:51;1.48;;;0.70;;
36321;SDS011;23564;48.290;11.460;2022-11-21T08:54:21;1.27;;;0.40;;
36321;SDS011;23564;48.290;11.460;2022-11-21T08:56:48;1.50;;;0.70;;
36321;SDS011;23564;48.290;11.460;2022-11-21T08:59:14;0.98;;;0.52;;
36321;SDS011;23564;48.290;11.460;2022-11-21T09:01:41;3.47;;;1.15;;
36321;SDS011;23564;48.290;11.460;2022-11-21T09:04:07;1.85;;;0.70;;
36321;SDS011;23564;48.290;11.460;2022-11-21T09:06:33;3.20;;;0.63;;
36321;SDS011;23564;48.290;11.460;2022-11-21T09:08:59;2.05;;;0.60;;
36321;SDS011;23564;48.290;11.460;2022-11-21T09:11:24;2.42;;;0.43;;
36321;SDS011;23564;48.290;11.460;2022-11-21T09:13:50;1.83;;;0.40;;
36321;SDS011;23564;48.290;11.460;2022-11-21T09:16:35;2.75;;;0.60;;
36321;SDS011;23564;48.290;11.460;2022-11-21T09:19:19;1.67;;;0.70;;
36321;SDS011;23564;48.290;11.460;2022-11-21T09:21:47;7.10;;;3.20;;
36321;SDS011;23564;48.290;11.460;2022-11-21T09:24:14;1.25;;;0.80;;
36321;SDS011;23564;48.290;11.460;2022-11-21T09:26:39;2.38;;;0.68;;
36321;SDS011;23564;48.290;11.460;2022-11-21T09:29:05;4.25;;;0.80;;
36321;SDS011;23564;48.290;11.460;2022-11-21T09:31:31;3.05;;;0.80;;
36321;SDS011;23564;48.290;11.460;2022-11-21T09:33:56;3.42;;;1.63;;
36321;SDS011;23564;48.290;11.460;2022-11-21T09:36:22;3.60;;;1.13;;
36321;SDS011;23564;48.290;11.460;2022-11-21T09:38:50;3.47;;;1.00;;
36321;SDS011;23564;48.290;11.460;2022-11-21T09:49:51;4.38;;;0.63;;
36321;SDS011;23564;48.290;11.460;2022-11-21T09:52:34;3.05;;;0.50;;
36321;SDS011;23564;48.290;11.460;2022-11-21T09:55:09;2.47;;;0.90;;
36321;SDS011;23564;48.290;11.460;2022-11-21T09:57:45;2.78;;;1.25;;
36321;SDS011;23564;48.290;11.460;2022-11-21T10:00:20;2.40;;;0.60;;
36321;SDS011;23564;48.290;11.460;2022-11-21T10:02:48;8.77;;;1.60;;
36321;SDS011;23564;48.290;11.460;2022-11-21T10:05:15;6.50;;;0.90;;
36321;SDS011;23564;48.290;11.460;2022-11-21T10:07:41;1.52;;;0.68;;
36321;SDS011;23564;48.290;11.460;2022-11-21T10:10:11;1.65;;;0.90;;
36321;SDS011;23564;48.290;11.460;2022-11-21T10:12:57;2.45;;;0.73;;
36321;SDS011;23564;48.290;11.460;2022-11-21T10:15:49;1.75;;;0.85;;
36321;SDS011;23564;48.290;11.460;2022-11-21T10:21:02;4.25;;;1.27;;
36321;SDS011;23564;48.290;11.460;2022-11-21T10:29:03;5.10;;;1.17;;
36321;SDS011;23564;48.290;11.460;2022-11-21T10:31:37;2.53;;;0.60;;
36321;SDS011;23564;48.290;11.460;2022-11-21T10:34:24;3.45;;;0.82;;
36321;SDS011;23564;48.290;11.460;2022-11-21T10:36:57;4.13;;;0.50;;
36321;SDS011;23564;48.290;11.460;2022-11-21T10:39:34;3.25;;;0.88;;
36321;SDS011;23564;48.290;11.460;2022-11-21T10:42:14;9.70;;;1.92;;
36321;SDS011;23564;48.290;11.460;2022-11-21T10:44:41;3.05;;;1.20;;
36321;SDS011;23564;48.290;11.460;2022-11-21T10:47:30;3.30;;;0.82;;
36321;SDS011;23564;48.290;11.460;2022-11-21T10:52:46;3.35;;;1.10;;
36321;SDS011;23564;48.290;11.460;2022-11-21T10:55:14;5.57;;;1.30;;
36321;SDS011;23564;48.290;11.460;2022-11-21T10:57:42;3.40;;;1.20;;
36321;SDS011;23564;48.290;11.460;2022-11-21T11:02:39;3.42;;;1.30;;
36321;SDS011;23564;48.290;11.460;2022-11-21T11:05:16;4.45;;;1.20;;
36321;SDS011;23564;48.290;11.460;2022-11-21T11:13:02;4.18;;;1.15;;
36321;SDS011;23564;48.290;11.460;2022-11-21T11:16:05;3.80;;;1.35;;
36321;SDS011;23564;48.290;11.460;2022-11-21T11:18:35;4.88;;;1.10;;
36321;SDS011;23564;48.290;11.460;2022-11-21T11:21:11;5.40;;;1.50;;
36321;SDS011;23564;48.290;11.460;2022-11-21T11:23:42;2.03;;;0.88;;
36321;SDS011;23564;48.290;11.460;2022-11-21T11:28:47;8.50;;;1.60;;
36321;SDS011;23564;48.290;11.460;2022-11-21T11:31:13;5.38;;;0.80;;
36321;SDS011;23564;48.290;11.460;2022-11-21T11:33:39;3.88;;;0.90;;
36321;SDS011;23564;48.290;11.460;2022-11-21T11:36:30;7.57;;;1.40;;
36321;SDS011;23564;48.290;11.460;2022-11-21T11:39:04;7.47;;;1.45;;
36321;SDS011;23564;48.290;11.460;2022-11-21T11:42:05;8.25;;;0.93;;
36321;SDS011;23564;48.290;11.460;2022-11-21T11:47:55;4.88;;;1.50;;
36321;SDS011;23564;48.290;11.460;2022-11-21T11:50:23;6.10;;;1.50;;
36321;SDS011;23564;48.290;11.460;2022-11-21T11:53:02;7.22;;;1.45;;
36321;SDS011;23564;48.290;11.460;2022-11-21T11:55:40;5.07;;;1.40;;
36321;SDS011;23564;48.290;11.460;2022-11-21T11:58:09;3.80;;;1.35;;
36321;SDS011;23564;48.290;11.460;2022-11-21T12:01:00;4.78;;;0.80;;
36321;SDS011;23564;48.290;11.460;2022-11-21T12:03:47;6.45;;;1.20;;
36321;SDS011;23564;48.290;11.460;2022-11-21T12:06:22;4.63;;;1.95;;
36321;SDS011;23564;48.290;11.460;2022-11-21T12:08:54;6.28;;;1.10;;
36321;SDS011;23564;48.290;11.460;2022-11-21T12:11:32;3.08;;;0.60;;
36321;SDS011;23564;48.290;11.460;2022-11-21T12:14:36;3.25;;;0.77;;
36321;SDS011;23564;48.290;11.460;2022-11-21T12:20:29;7.57;;;0.90;;
36321;SDS011;23564;48.290;11.460;2022-11-21T12:23:00;1.98;;;0.90;;
36321;SDS011;23564;48.290;11.460;2022-11-21T12:25:29;2.60;;;0.90;;
36321;SDS011;23564;48.290;11.460;2022-11-21T12:27:58;2.72;;;0.70;;
36321;SDS011;23564;48.290;11.460;2022-11-21T12:35:36;1.20;;;0.43;;
36321;SDS011;23564;48.290;11.460;2022-11-21T12:38:27;4.10;;;0.75;;
36321;SDS011;23564;48.290;11.460;2022-11-21T12:44:20;3.13;;;0.60;;
36321;SDS011;23564;48.290;11.460;2022-11-21T12:47:10;3.97;;;0.73;;
36321;SDS011;23564;48.290;11.460;2022-11-21T12:49:54;7.63;;;0.73;;
36321;SDS011;23564;48.290;11.460;2022-11-21T12:53:07;2.28;;;0.85;;
36321;SDS011;23564;48.290;11.460;2022-11-21T12:56:05;3.35;;;1.10;;
36321;SDS011;23564;48.290;11.460;2022-11-21T12:58:48;5.00;;;1.65;;
36321;SDS011;23564;48.290;11.460;2022-11-21T13:01:27;4.00;;;0.95;;
36321;SDS011;23564;48.290;11.460;2022-11-21T13:04:23;2.28;;;0.57;;
36321;SDS011;23564;48.290;11.460;2022-11-21T13:06:53;5.90;;;0.85;;
36321;SDS011;23564;48.290;11.460;2022-11-21T13:09:21;1.63;;;0.50;;
36321;SDS011;23564;48.290;11.460;2022-11-21T13:19:50;5.85;;;1.95;;
36321;SDS011;23564;48.290;11.460;2022-11-21T13:25:00;2.03;;;0.85;;
36321;SDS011;23564;48.290;11.460;2022-11-21T13:27:34;4.45;;;1.05;;
36321;SDS011;23564;48.290;11.460;2022-11-21T13:32:39;6.80;;;0.80;;
36321;SDS011;23564;48.290;11.460;2022-11-21T13:37:58;5.47;;;0.70;;
36321;SDS011;23564;48.290;11.460;2022-11-21T13:40:38;4.55;;;0.90;;
36321;SDS011;23564;48.290;11.460;2022-11-21T13:43:24;2.92;;;0.73;;
36321;SDS011;23564;48.290;11.460;2022-11-21T13:45:51;2.72;;;0.68;;
36321;SDS011;23564;48.290;11.460;2022-11-21T13:53:53;1.58;;;0.73;;
36321;SDS011;23564;48.290;11.460;2022-11-21T14:07:38;3.83;;;0.57;;
36321;SDS011;23564;48.290;11.460;2022-11-21T14:10:05;2.17;;;0.60;;
36321;SDS011;23564;48.290;11.460;2022-11-21T14:12:44;4.95;;;0.90;;
36321;SDS011;23564;48.290;11.460;2022-11-21T14:15:31;8.68;;;2.55;;
36321;SDS011;23564;48.290;11.460;2022-11-21T14:18:05;12.02;;;2.78;;
36321;SDS011;23564;48.290;11.460;2022-11-21T14:20:52;8.45;;;2.20;;
36321;SDS011;23564;48.290;11.460;2022-11-21T14:23:24;3.88;;;1.35;;
36321;SDS011;23564;48.290;11.460;2022-11-21T14:26:09;8.10;;;2.38;;
36321;SDS011;23564;48.290;11.460;2022-11-21T14:28:37;18.27;;;3.70;;
36321;SDS011;23564;48.290;11.460;2022-11-21T14:31:04;9.20;;;1.60;;
36321;SDS011;23564;48.290;11.460;2022-11-21T14:33:32;7.85;;;1.85;;
36321;SDS011;23564;48.290;11.460;2022-11-21T14:36:03;9.27;;;1.48;;
36321;SDS011;23564;48.290;11.460;2022-11-21T14:46:26;6.55;;;1.58;;
36321;SDS011;23564;48.290;11.460;2022-11-21T14:49:08;4.00;;;1.13;;
36321;SDS011;23564;48.290;11.460;2022-11-21T14:51:40;4.10;;;1.02;;
36321;SDS011;23564;48.290;11.460;2022-11-21T14:54:18;6.40;;;0.95;;
36321;SDS011;23564;48.290;11.460;2022-11-21T14:56:47;4.50;;;0.98;;
36321;SDS011;23564;48.290;11.460;2022-11-21T14:59:21;7.22;;;0.90;;
36321;SDS011;23564;48.290;11.460;2022-11-21T15:01:56;1.33;;;0.50;;
36321;SDS011;23564;48.290;11.460;2022-11-21T15:04:32;3.08;;;0.70;;
36321;SDS011;23564;48.290;11.460;2022-11-21T15:09:25;3.45;;;0.60;;
36321;SDS011;23564;48.290;11.460;2022-11-21T15:12:25;5.43;;;0.70;;
36321;SDS011;23564;48.290;11.460;2022-11-21T15:14:48;3.17;;;0.75;;
36321;SDS011;23564;48.290;11.460;2022-11-21T15:17:23;10.55;;;1.83;;
36321;SDS011;23564;48.290;11.460;2022-11-21T15:20:36;2.70;;;1.08;;
36321;SDS011;23564;48.290;11.460;2022-11-21T15:22:37;4.32;;;1.15;;
36321;SDS011;23564;48.290;11.460;2022-11-21T15:25:13;1.30;;;0.75;;
36321;SDS011;23564;48.290;11.460;2022-11-21T15:27:44;1.98;;;0.77;;
36321;SDS011;23564;48.290;11.460;2022-11-21T15:32:57;4.70;;;1.83;;
36321;SDS011;23564;48.290;11.460;2022-11-21T15:41:04;11.38;;;5.38;;
36321;SDS011;23564;48.290;11.460;2022-11-21T15:43:34;11.23;;;6.07;;
36321;SDS011;23564;48.290;11.460;2022-11-21T15:48:55;15.57;;;5.18;;
36321;SDS011;23564;48.290;11.460;2022-11-21T15:51:23;13.80;;;4.97;;
36321;SDS011;23564;48.290;11.460;2022-11-21T15:53:50;8.60;;;3.25;;
36321;SDS011;23564;48.290;11.460;2022-11-21T15:56:17;5.85;;;2.50;;
36321;SDS011;23564;48.290;11.460;2022-11-21T15:58:44;5.95;;;2.28;;
36321;SDS011;23564;48.290;11.460;2022-11-21T16:03:50;7.25;;;2.35;;
36321;SDS011;23564;48.290;11.460;2022-11-21T16:06:17;7.68;;;2.10;;
36321;SDS011;23564;48.290;11.460;2022-11-21T16:08:44;6.22;;;2.30;;
36321;SDS011;23564;48.290;11.460;2022-11-21T16:11:13;9.52;;;1.80;;
36321;SDS011;23564;48.290;11.460;2022-11-21T16:13:46;5.65;;;1.83;;
36321;SDS011;23564;48.290;11.460;2022-11-21T16:16:13;5.80;;;2.03;;
36321;SDS011;23564;48.290;11.460;2022-11-21T16:18:38;3.88;;;1.98;;
36321;SDS011;23564;48.290;11.460;2022-11-21T16:21:07;7.35;;;1.50;;
36321;SDS011;23564;48.290;11.460;2022-11-21T16:23:35;3.13;;;1.70;;
36321;SDS011;23564;48.290;11.460;2022-11-21T16:26:01;3.10;;;1.92;;
36321;SDS011;23564;48.290;11.460;2022-11-21T16:28:26;7.38;;;2.08;;
36321;SDS011;23564;48.290;11.460;2022-11-21T16:30:52;5.28;;;2.45;;
36321;SDS011;23564;48.290;11.460;2022-11-21T16:33:18;12.77;;;2.75;;
36321;SDS011;23564;48.290;11.460;2022-11-21T16:35:43;6.10;;;2.03;;